createdAt,value
2018-04-28T00:00:36.271Z,3.80
2018-04-28T00:03:04.557Z,3.62
2018-04-28T00:05:32.814Z,3.95
2018-04-28T00:08:00.323Z,3.72
2018-04-28T00:10:27.767Z,3.80
2018-04-28T00:12:55.256Z,3.20
2018-04-28T00:15:23.528Z,3.43
2018-04-28T00:17:51.256Z,3.60
2018-04-28T00:20:22.353Z,3.53
2018-04-28T00:22:56.668Z,3.28
2018-04-28T00:25:32.032Z,3.20
2018-04-28T00:28:23.988Z,3.60
2018-04-28T00:30:57.260Z,3.47
2018-04-28T00:33:42.213Z,3.58
2018-04-28T00:36:13.370Z,3.60
2018-04-28T00:38:40.916Z,3.30
2018-04-28T00:41:09.972Z,3.67
2018-04-28T00:44:02.885Z,3.55
2018-04-28T00:46:31.131Z,3.30
2018-04-28T00:49:00.487Z,3.17
2018-04-28T00:51:37.467Z,3.47
2018-04-28T00:54:14.966Z,3.45
2018-04-28T00:56:50.414Z,3.47
2018-04-28T00:59:29.306Z,3.28
2018-04-28T01:01:58.325Z,3.13
2018-04-28T01:04:43.479Z,3.10
2018-04-28T01:07:16.374Z,3.28
2018-04-28T01:09:43.861Z,3.22
2018-04-28T01:12:13.587Z,3.20
2018-04-28T01:14:41.986Z,3.28
2018-04-28T01:17:22.459Z,2.90
2018-04-28T01:19:55.810Z,2.90
2018-04-28T01:22:40.867Z,2.92
2018-04-28T01:25:11.283Z,3.22
2018-04-28T01:27:56.091Z,3.10
2018-04-28T01:30:37.989Z,3.12
2018-04-28T01:33:15.198Z,2.83
2018-04-28T01:35:43.881Z,2.70
2018-04-28T01:38:13.436Z,2.90
2018-04-28T01:40:43.416Z,3.00
2018-04-28T01:43:14.258Z,3.10
2018-04-28T01:46:00.510Z,3.03
2018-04-28T01:48:30.634Z,2.80
2018-04-28T01:50:58.115Z,3.08
2018-04-28T01:53:42.928Z,3.17
2018-04-28T01:56:16.222Z,2.90
2018-04-28T01:59:03.395Z,3.00
2018-04-28T02:01:34.377Z,2.72
2018-04-28T02:04:01.847Z,2.90
2018-04-28T02:06:35.166Z,2.85
2018-04-28T02:09:08.153Z,2.80
2018-04-28T02:11:52.218Z,3.12
2018-04-28T02:17:54.032Z,2.90
2018-04-28T02:20:27.415Z,2.75
2018-04-28T02:23:06.185Z,2.62
2018-04-28T02:25:37.283Z,3.00
2018-04-28T02:28:12.023Z,2.95
2018-04-28T02:33:40.067Z,3.10
2018-04-28T02:39:22.206Z,2.70
2018-04-28T02:41:54.221Z,2.90
2018-04-28T02:44:41.081Z,2.80
2018-04-28T02:47:10.263Z,2.95
2018-04-28T02:49:43.590Z,2.72
2018-04-28T02:52:21.525Z,2.80
2018-04-28T02:54:51.873Z,2.55
2018-04-28T02:57:23.323Z,3.00
2018-04-28T02:59:53.547Z,3.00
2018-04-28T03:02:42.267Z,3.08
2018-04-28T03:05:15.382Z,2.70
2018-04-28T03:07:49.340Z,2.92
2018-04-28T03:10:18.462Z,2.80
2018-04-28T03:12:45.935Z,2.90
2018-04-28T03:15:13.433Z,3.00
2018-04-28T03:17:50.799Z,3.37
2018-04-28T03:20:19.822Z,3.08
2018-04-28T03:22:48.774Z,2.92
2018-04-28T03:25:18.883Z,2.83
2018-04-28T03:27:51.383Z,2.92
2018-04-28T03:30:36.478Z,2.83
2018-04-28T03:33:13.866Z,3.00
2018-04-28T03:35:47.298Z,3.10
2018-04-28T03:38:21.202Z,2.80
2018-04-28T03:40:51.368Z,3.28
2018-04-28T03:43:37.134Z,2.97
2018-04-28T03:46:13.347Z,3.10
2018-04-28T03:48:49.427Z,3.03
2018-04-28T03:51:19.687Z,2.80
2018-04-28T03:56:50.704Z,3.40
2018-04-28T03:59:30.180Z,3.05
2018-04-28T04:02:10.206Z,2.70
2018-04-28T04:04:43.675Z,2.58
2018-04-28T04:07:23.776Z,2.83
2018-04-28T04:13:04.818Z,2.72
2018-04-28T04:18:38.846Z,2.60
2018-04-28T04:21:23.265Z,2.90
2018-04-28T04:24:12.483Z,2.80
2018-04-28T04:26:43.995Z,2.80
2018-04-28T04:29:19.922Z,3.67
2018-04-28T04:32:00.790Z,6.60
2018-04-28T04:37:44.535Z,3.00
2018-04-28T04:43:44.341Z,3.42
2018-04-28T04:46:19.696Z,3.10
2018-04-28T04:58:59.665Z,2.97
2018-04-28T05:04:53.814Z,2.70
2018-04-28T05:07:26.202Z,2.90
2018-04-28T05:10:09.260Z,2.90
2018-04-28T05:12:54.597Z,2.57
2018-04-28T05:18:36.405Z,3.08
2018-04-28T05:21:20.793Z,3.03
2018-04-28T05:26:52.922Z,2.78
2018-04-28T05:32:33.897Z,2.72
2018-04-28T05:35:22.146Z,2.62
2018-04-28T05:38:11.263Z,2.90
2018-04-28T05:43:43.702Z,2.55
2018-04-28T05:46:18.030Z,2.90
2018-04-28T05:52:10.591Z,2.40
2018-04-28T05:58:09.386Z,2.28
2018-04-28T06:04:01.313Z,2.65
2018-04-28T06:06:35.546Z,5.20
2018-04-28T06:12:32.677Z,2.20
2018-04-28T06:15:04.470Z,2.30
2018-04-28T06:20:38.253Z,2.10
2018-04-28T06:23:06.078Z,2.30
2018-04-28T06:25:39.190Z,2.60
2018-04-28T06:28:07.695Z,2.40
2018-04-28T06:30:35.626Z,2.50
2018-04-28T06:33:03.450Z,2.70
2018-04-28T06:35:30.986Z,2.92
2018-04-28T06:37:59.318Z,2.90
2018-04-28T06:40:26.787Z,3.00
2018-04-28T06:42:54.262Z,3.12
2018-04-28T06:45:21.909Z,2.78
2018-04-28T06:47:50.310Z,3.00
2018-04-28T06:50:17.788Z,2.90
2018-04-28T06:52:45.524Z,2.60
2018-04-28T06:55:13.774Z,2.42
2018-04-28T06:57:41.251Z,2.70
2018-04-28T07:00:10.795Z,2.78
2018-04-28T07:02:39.059Z,2.47
2018-04-28T07:05:06.595Z,2.70
2018-04-28T07:07:34.121Z,2.70
2018-04-28T07:10:02.428Z,2.55
2018-04-28T07:12:30.681Z,3.25
2018-04-28T07:14:58.162Z,2.65
2018-04-28T07:17:38.034Z,2.40
2018-04-28T07:20:05.541Z,2.40
2018-04-28T07:22:33.068Z,2.63
2018-04-28T07:25:00.584Z,2.60
2018-04-28T07:27:28.375Z,2.50
2018-04-28T07:29:55.900Z,2.70
2018-04-28T07:32:26.779Z,2.42
2018-04-28T07:34:54.514Z,2.67
2018-04-28T07:37:21.994Z,2.80
2018-04-28T07:39:51.155Z,3.20
2018-04-28T07:42:18.661Z,2.70
2018-04-28T07:44:46.152Z,2.40
2018-04-28T07:47:14.414Z,2.70
2018-04-28T07:49:41.907Z,2.53
2018-04-28T07:52:10.125Z,3.03
2018-04-28T07:54:38.443Z,2.80
2018-04-28T07:57:05.978Z,2.70
2018-04-28T07:59:35.506Z,2.90
2018-04-28T08:02:04.079Z,3.00
2018-04-28T08:04:35.978Z,2.63
2018-04-28T08:07:06.606Z,2.92
2018-04-28T08:09:59.961Z,2.75
2018-04-28T08:15:36.739Z,2.90
2018-04-28T11:54:07.390Z,2.50
2018-04-28T11:56:38.896Z,2.40
2018-04-28T11:59:10.114Z,2.03
2018-04-28T12:01:39.772Z,2.10
2018-04-28T12:19:37.310Z,1.80
2018-04-28T12:37:07.673Z,2.40
2018-04-28T12:39:36.444Z,2.35
2018-04-28T12:42:11.107Z,3.40
2018-04-28T13:02:36.694Z,2.10
2018-04-28T13:05:07.405Z,2.10
2018-04-28T13:10:37.599Z,2.30
2018-04-28T13:13:05.954Z,2.40
2018-04-28T13:18:34.330Z,2.30
2018-04-28T13:21:04.518Z,2.00
2018-04-28T13:23:34.934Z,2.03
2018-04-28T13:26:05.419Z,2.17
2018-04-28T13:28:35.597Z,2.33
2018-04-28T13:31:05.812Z,2.10
2018-04-28T13:33:36.867Z,2.30
2018-04-28T13:39:05.989Z,2.20
2018-04-28T13:41:36.858Z,2.40
2018-04-28T13:44:07.171Z,2.40
2018-04-28T13:46:54.616Z,2.20
2018-04-28T13:49:38.042Z,2.20
2018-04-28T13:52:05.553Z,2.22
2018-04-28T13:54:37.973Z,2.30
2018-04-28T13:57:06.895Z,2.70
2018-04-28T13:59:36.327Z,2.40
2018-04-28T14:02:06.792Z,2.28
2018-04-28T14:19:32.155Z,2.28
2018-04-28T14:22:03.474Z,2.55
2018-04-28T14:24:37.423Z,2.30
2018-04-28T14:30:08.091Z,2.37
2018-04-28T14:32:36.346Z,2.30
2018-04-28T14:35:06.878Z,2.62
2018-04-28T14:37:34.376Z,2.20
2018-04-28T14:40:05.670Z,2.35
2018-04-28T14:42:51.589Z,2.25
2018-04-28T14:54:05.109Z,2.47
2018-04-28T14:56:37.000Z,2.03
2018-04-28T14:59:05.697Z,2.10
2018-04-28T15:01:36.043Z,2.03
2018-04-28T15:04:04.532Z,2.50
2018-04-28T15:06:36.539Z,1.90
2018-04-28T15:09:07.261Z,2.00
2018-04-28T15:11:36.102Z,2.30
2018-04-28T15:14:06.959Z,2.00
2018-04-28T15:19:35.808Z,2.20
2018-04-28T15:36:43.998Z,2.28
2018-04-28T15:41:51.061Z,2.30
2018-04-28T15:44:23.243Z,2.28
2018-04-28T15:46:56.059Z,1.95
2018-04-28T15:49:30.598Z,2.37
2018-04-28T15:52:05.576Z,2.12
2018-04-28T15:54:35.792Z,2.08
2018-04-28T15:57:05.101Z,2.28
2018-04-28T15:59:34.316Z,2.60
2018-04-28T16:02:04.813Z,2.20
2018-04-28T16:04:35.118Z,2.40
2018-04-28T16:07:05.663Z,2.00
2018-04-28T16:09:36.048Z,2.12
2018-04-28T16:12:05.415Z,2.25
2018-04-28T16:14:35.402Z,2.33
2018-04-28T16:17:06.223Z,2.50
2018-04-28T16:19:37.048Z,2.42
2018-04-28T16:22:05.974Z,2.30
2018-04-28T16:27:22.221Z,2.03
2018-04-28T16:30:06.540Z,2.00
2018-04-28T16:35:50.806Z,2.28
2018-04-28T16:38:24.144Z,2.30
2018-04-28T16:41:24.491Z,2.13
2018-04-28T16:52:59.886Z,2.35
2018-04-28T16:58:37.077Z,2.50
2018-04-28T17:01:05.892Z,2.28
2018-04-28T17:03:35.586Z,2.47
2018-04-28T17:06:06.110Z,2.50
2018-04-28T17:08:36.606Z,2.47
2018-04-28T17:11:04.103Z,2.20
2018-04-28T17:13:35.744Z,2.37
2018-04-28T17:19:05.885Z,2.30
2018-04-28T17:21:36.661Z,2.37
2018-04-28T17:24:05.835Z,2.22
2018-04-28T17:29:35.999Z,2.40
2018-04-28T17:32:07.140Z,2.60
2018-04-28T17:34:35.949Z,2.28
2018-04-28T17:37:06.740Z,2.53
2018-04-28T17:45:07.568Z,3.10
2018-04-28T17:47:35.907Z,2.80
2018-04-28T17:59:02.960Z,2.50
2018-04-28T18:01:36.307Z,2.65
2018-04-28T18:07:06.373Z,3.00
2018-04-28T18:09:37.028Z,3.17
2018-04-28T18:12:05.993Z,3.10
2018-04-28T18:23:37.016Z,2.85
2018-04-28T18:38:36.592Z,3.20
2018-04-28T18:41:06.287Z,2.75
2018-04-28T18:48:37.229Z,2.92
2018-04-28T18:51:07.404Z,2.50
2018-04-28T18:53:37.383Z,2.35
2018-04-28T18:56:04.907Z,2.40
2018-04-28T18:58:34.336Z,2.60
2018-04-28T19:01:04.550Z,2.50
2018-04-28T19:03:34.994Z,2.83
2018-04-28T19:15:09.286Z,2.70
2018-04-28T19:17:38.183Z,2.85
2018-04-28T19:20:05.775Z,3.30
2018-04-28T19:22:35.706Z,2.50
2018-04-28T19:25:06.487Z,3.17
2018-04-28T19:27:36.229Z,2.90
2018-04-28T19:30:05.729Z,2.80
2018-04-28T19:32:37.124Z,2.83
2018-04-28T19:35:05.376Z,2.92
2018-04-28T19:37:36.928Z,2.80
2018-04-28T19:40:05.060Z,3.00
2018-04-28T19:42:36.917Z,3.20
2018-04-28T19:45:05.597Z,3.10
2018-04-28T19:47:37.911Z,3.00
2018-04-28T19:50:07.680Z,3.50
2018-04-28T19:52:36.111Z,3.53
2018-04-28T19:55:07.266Z,3.22
2018-04-28T19:57:36.005Z,3.22
2018-04-28T20:00:07.440Z,3.00
2018-04-28T20:02:36.176Z,3.80
2018-04-28T20:05:05.670Z,4.10
2018-04-28T20:07:33.166Z,4.40
2018-04-28T20:10:00.754Z,4.25
2018-04-28T20:12:28.925Z,4.10
2018-04-28T20:15:00.375Z,4.05
2018-04-28T20:17:27.862Z,3.70
2018-04-28T20:19:55.363Z,3.85
2018-04-28T20:22:35.502Z,3.63
2018-04-28T20:28:05.783Z,3.65
2018-04-28T20:30:33.293Z,3.70
2018-04-28T20:33:00.799Z,3.70
2018-04-28T20:35:28.287Z,3.37
2018-04-28T20:37:56.544Z,3.20
2018-04-28T20:40:24.132Z,3.60
2018-04-28T20:42:51.706Z,3.72
2018-04-28T20:45:36.424Z,3.62
2018-04-28T20:48:03.955Z,3.50
2018-04-28T20:50:32.263Z,3.37
2018-04-28T20:53:00.504Z,3.47
2018-04-28T20:55:28.047Z,3.53
2018-04-28T20:57:55.898Z,4.10
2018-04-28T21:00:24.163Z,3.47
2018-04-28T21:02:51.679Z,3.47
2018-04-28T21:05:35.814Z,3.92
2018-04-28T21:08:04.160Z,3.33
2018-04-28T21:10:33.599Z,3.65
2018-04-28T21:13:02.092Z,3.53
2018-04-28T21:15:29.582Z,3.53
2018-04-28T21:17:57.848Z,3.47
2018-04-28T21:20:25.342Z,3.37
2018-04-28T21:22:53.602Z,3.67
2018-04-28T21:25:21.090Z,3.63
2018-04-28T21:28:14.331Z,3.55
2018-04-28T21:30:41.898Z,3.53
2018-04-28T21:33:09.397Z,3.53
2018-04-28T21:35:36.899Z,3.95
2018-04-28T21:38:05.163Z,3.37
2018-04-28T21:40:32.680Z,3.55
2018-04-28T21:43:00.178Z,4.07
2018-04-28T21:45:27.694Z,3.78
2018-04-28T21:47:55.265Z,3.85
2018-04-28T21:50:23.820Z,3.67
2018-04-28T21:52:51.342Z,4.00
2018-04-28T21:55:18.842Z,4.12
2018-04-28T21:57:52.962Z,4.30
2018-04-28T22:00:20.500Z,4.25
2018-04-28T22:02:48.759Z,4.40
2018-04-28T22:05:16.271Z,4.60
2018-04-28T22:07:43.831Z,4.20
2018-04-28T22:10:11.324Z,4.65
2018-04-28T22:12:46.967Z,4.30
2018-04-28T22:15:14.666Z,4.30
2018-04-28T22:17:42.908Z,4.43
2018-04-28T22:20:10.396Z,4.20
2018-04-28T22:22:43.147Z,3.90
2018-04-28T22:25:10.638Z,4.40
2018-04-28T22:27:38.926Z,4.10
2018-04-28T22:30:06.422Z,4.18
2018-04-28T22:32:33.945Z,4.18
2018-04-28T22:35:01.436Z,4.37
2018-04-28T22:37:43.134Z,4.40
2018-04-28T22:40:10.661Z,4.50
2018-04-28T22:42:38.147Z,4.80
2018-04-28T22:45:05.631Z,4.60
2018-04-28T22:47:33.107Z,4.62
2018-04-28T22:50:13.335Z,4.13
